sensor_id;sensor_type;location;lat;lon;timestamp;pressure;altitude;pressure_sealevel;temperature;humidity
20616;BME280;10467;42.338;23.552;2022-07-29T00:02:10;91179.28;;;15.94;100.00
20616;BME280;10467;42.338;23.552;2022-07-29T00:04:36;91191.81;;;16.02;100.00
20616;BME280;10467;42.338;23.552;2022-07-29T00:07:03;91184.09;;;16.00;100.00
20616;BME280;10467;42.338;23.552;2022-07-29T00:09:29;91185.56;;;15.98;100.00
20616;BME280;10467;42.338;23.552;2022-07-29T00:11:57;91192.69;;;15.94;100.00
20616;BME280;10467;42.338;23.552;2022-07-29T00:14:23;91199.84;;;15.90;100.00
20616;BME280;10467;42.338;23.552;2022-07-29T00:16:49;91187.44;;;15.85;100.00
20616;BME280;10467;42.338;23.552;2022-07-29T00:19:14;91194.16;;;15.79;100.00
20616;BME280;10467;42.338;23.552;2022-07-29T00:21:40;91202.50;;;15.77;100.00
20616;BME280;10467;42.338;23.552;2022-07-29T00:24:05;91207.69;;;15.82;100.00
20616;BME280;10467;42.338;23.552;2022-07-29T00:26:31;91203.53;;;15.85;100.00
20616;BME280;10467;42.338;23.552;2022-07-29T00:29:02;91198.97;;;15.85;100.00
20616;BME280;10467;42.338;23.552;2022-07-29T00:31:28;91194.00;;;15.75;100.00
20616;BME280;10467;42.338;23.552;2022-07-29T00:33:54;91205.66;;;15.79;100.00
20616;BME280;10467;42.338;23.552;2022-07-29T00:36:19;91198.94;;;15.73;100.00
20616;BME280;10467;42.338;23.552;2022-07-29T00:38:48;91191.34;;;15.63;100.00
20616;BME280;10467;42.338;23.552;2022-07-29T00:41:13;91189.78;;;15.62;100.00
20616;BME280;10467;42.338;23.552;2022-07-29T00:43:39;91192.28;;;15.58;100.00
20616;BME280;10467;42.338;23.552;2022-07-29T00:46:04;91192.16;;;15.55;100.00
20616;BME280;10467;42.338;23.552;2022-07-29T00:48:30;91185.91;;;15.51;100.00
20616;BME280;10467;42.338;23.552;2022-07-29T00:51:00;91179.72;;;15.38;100.00
20616;BME280;10467;42.338;23.552;2022-07-29T00:53:26;91181.84;;;15.45;100.00
20616;BME280;10467;42.338;23.552;2022-07-29T00:55:53;91182.31;;;15.47;100.00
20616;BME280;10467;42.338;23.552;2022-07-29T00:58:20;91184.09;;;15.43;100.00
20616;BME280;10467;42.338;23.552;2022-07-29T01:00:45;91182.53;;;15.42;100.00
20616;BME280;10467;42.338;23.552;2022-07-29T01:03:11;91184.41;;;15.41;100.00
20616;BME280;10467;42.338;23.552;2022-07-29T01:05:38;91178.16;;;15.37;100.00
20616;BME280;10467;42.338;23.552;2022-07-29T01:08:06;91180.91;;;15.28;100.00
20616;BME280;10467;42.338;23.552;2022-07-29T01:10:32;91173.09;;;15.23;100.00
20616;BME280;10467;42.338;23.552;2022-07-29T01:12:59;91180.00;;;15.24;100.00
20616;BME280;10467;42.338;23.552;2022-07-29T01:15:26;91174.66;;;15.24;100.00
20616;BME280;10467;42.338;23.552;2022-07-29T01:18:07;91179.13;;;15.20;100.00
20616;BME280;10467;42.338;23.552;2022-07-29T01:25:44;91165.66;;;15.08;100.00
20616;BME280;10467;42.338;23.552;2022-07-29T01:28:30;91170.81;;;15.13;100.00
20616;BME280;10467;42.338;23.552;2022-07-29T01:30:58;91163.56;;;15.14;100.00
20616;BME280;10467;42.338;23.552;2022-07-29T01:33:26;91165.78;;;15.12;100.00
20616;BME280;10467;42.338;23.552;2022-07-29T01:36:16;91175.38;;;15.01;100.00
20616;BME280;10467;42.338;23.552;2022-07-29T01:38:45;91176.78;;;14.98;100.00
20616;BME280;10467;42.338;23.552;2022-07-29T01:41:16;91175.69;;;14.99;100.00
20616;BME280;10467;42.338;23.552;2022-07-29T01:43:56;91172.69;;;15.01;100.00
20616;BME280;10467;42.338;23.552;2022-07-29T01:46:31;91173.13;;;15.03;100.00
20616;BME280;10467;42.338;23.552;2022-07-29T01:49:05;91171.41;;;14.98;100.00
20616;BME280;10467;42.338;23.552;2022-07-29T01:52:21;91161.81;;;14.97;100.00
20616;BME280;10467;42.338;23.552;2022-07-29T01:54:43;91170.28;;;14.87;100.00
20616;BME280;10467;42.338;23.552;2022-07-29T01:57:16;91176.16;;;14.80;100.00
20616;BME280;10467;42.338;23.552;2022-07-29T01:59:45;91164.97;;;14.78;100.00
20616;BME280;10467;42.338;23.552;2022-07-29T02:02:13;91172.69;;;14.80;100.00
20616;BME280;10467;42.338;23.552;2022-07-29T02:04:41;91165.44;;;14.80;100.00
20616;BME280;10467;42.338;23.552;2022-07-29T02:07:10;91174.47;;;14.76;100.00
20616;BME280;10467;42.338;23.552;2022-07-29T02:09:39;91175.44;;;14.71;100.00
20616;BME280;10467;42.338;23.552;2022-07-29T02:12:06;91172.44;;;14.73;100.00
20616;BME280;10467;42.338;23.552;2022-07-29T02:14:35;91173.69;;;14.75;100.00
20616;BME280;10467;42.338;23.552;2022-07-29T02:17:01;91164.28;;;14.69;100.00
20616;BME280;10467;42.338;23.552;2022-07-29T02:19:27;91168.19;;;14.72;100.00
20616;BME280;10467;42.338;23.552;2022-07-29T02:21:56;91170.22;;;14.75;100.00
20616;BME280;10467;42.338;23.552;2022-07-29T02:24:24;91169.09;;;14.76;100.00
20616;BME280;10467;42.338;23.552;2022-07-29T02:26:52;91145.59;;;14.60;100.00
20616;BME280;10467;42.338;23.552;2022-07-29T02:29:21;91154.75;;;14.59;100.00
20616;BME280;10467;42.338;23.552;2022-07-29T02:31:50;91162.06;;;14.71;100.00
20616;BME280;10467;42.338;23.552;2022-07-29T02:34:18;91161.84;;;14.76;100.00
20616;BME280;10467;42.338;23.552;2022-07-29T02:36:45;91161.31;;;14.83;100.00
20616;BME280;10467;42.338;23.552;2022-07-29T02:39:12;91158.00;;;14.86;100.00
20616;BME280;10467;42.338;23.552;2022-07-29T02:44:12;91156.81;;;14.75;100.00
20616;BME280;10467;42.338;23.552;2022-07-29T02:46:43;91153.69;;;14.73;100.00
20616;BME280;10467;42.338;23.552;2022-07-29T02:52:03;91165.06;;;14.70;100.00
20616;BME280;10467;42.338;23.552;2022-07-29T02:57:33;91141.34;;;14.59;100.00
20616;BME280;10467;42.338;23.552;2022-07-29T03:00:05;91161.00;;;14.63;100.00
20616;BME280;10467;42.338;23.552;2022-07-29T03:02:44;91147.63;;;14.63;100.00
20616;BME280;10467;42.338;23.552;2022-07-29T03:05:20;91150.28;;;14.63;100.00
20616;BME280;10467;42.338;23.552;2022-07-29T03:07:51;91150.94;;;14.60;100.00
20616;BME280;10467;42.338;23.552;2022-07-29T03:10:18;91150.81;;;14.57;100.00
20616;BME280;10467;42.338;23.552;2022-07-29T03:12:43;91149.78;;;14.49;100.00
20616;BME280;10467;42.338;23.552;2022-07-29T03:15:09;91162.69;;;14.47;100.00
20616;BME280;10467;42.338;23.552;2022-07-29T03:17:36;91153.56;;;14.48;100.00
20616;BME280;10467;42.338;23.552;2022-07-29T03:20:03;91163.16;;;14.49;100.00
20616;BME280;10467;42.338;23.552;2022-07-29T03:22:29;91147.09;;;14.49;100.00
20616;BME280;10467;42.338;23.552;2022-07-29T03:24:54;91154.28;;;14.57;100.00
20616;BME280;10467;42.338;23.552;2022-07-29T03:27:20;91153.19;;;14.58;100.00
20616;BME280;10467;42.338;23.552;2022-07-29T03:29:45;91152.63;;;14.65;100.00
20616;BME280;10467;42.338;23.552;2022-07-29T03:32:11;91163.03;;;14.66;100.00
20616;BME280;10467;42.338;23.552;2022-07-29T03:34:37;91145.72;;;14.64;100.00
20616;BME280;10467;42.338;23.552;2022-07-29T03:37:03;91159.16;;;14.76;100.00
20616;BME280;10467;42.338;23.552;2022-07-29T03:39:32;91160.75;;;14.77;100.00
20616;BME280;10467;42.338;23.552;2022-07-29T03:41:59;91140.63;;;14.71;100.00
20616;BME280;10467;42.338;23.552;2022-07-29T03:44:27;91150.03;;;14.77;100.00
20616;BME280;10467;42.338;23.552;2022-07-29T03:46:54;91148.59;;;14.80;100.00
20616;BME280;10467;42.338;23.552;2022-07-29T03:49:21;91152.22;;;14.96;100.00
20616;BME280;10467;42.338;23.552;2022-07-29T03:51:49;91151.59;;;14.99;100.00
20616;BME280;10467;42.338;23.552;2022-07-29T03:54:15;91144.28;;;14.87;100.00
20616;BME280;10467;42.338;23.552;2022-07-29T03:56:43;91146.63;;;14.89;100.00
20616;BME280;10467;42.338;23.552;2022-07-29T03:59:11;91153.53;;;14.90;100.00
20616;BME280;10467;42.338;23.552;2022-07-29T04:01:38;91153.94;;;15.01;100.00
20616;BME280;10467;42.338;23.552;2022-07-29T04:04:04;91153.06;;;15.09;100.00
20616;BME280;10467;42.338;23.552;2022-07-29T04:06:43;91149.31;;;15.22;100.00
20616;BME280;10467;42.338;23.552;2022-07-29T04:09:09;91147.56;;;15.38;100.00
20616;BME280;10467;42.338;23.552;2022-07-29T04:11:36;91143.19;;;15.46;100.00
20616;BME280;10467;42.338;23.552;2022-07-29T04:14:02;91148.81;;;15.53;100.00
20616;BME280;10467;42.338;23.552;2022-07-29T04:16:27;91149.38;;;15.58;100.00
20616;BME280;10467;42.338;23.552;2022-07-29T04:18:53;91152.44;;;15.69;100.00
20616;BME280;10467;42.338;23.552;2022-07-29T04:21:18;91149.66;;;15.66;100.00
20616;BME280;10467;42.338;23.552;2022-07-29T04:23:44;91159.47;;;15.74;100.00
20616;BME280;10467;42.338;23.552;2022-07-29T04:26:10;91158.47;;;15.66;100.00
20616;BME280;10467;42.338;23.552;2022-07-29T04:28:36;91157.59;;;15.62;100.00
20616;BME280;10467;42.338;23.552;2022-07-29T04:31:01;91156.69;;;15.70;100.00
20616;BME280;10467;42.338;23.552;2022-07-29T04:33:27;91163.63;;;15.83;100.00
20616;BME280;10467;42.338;23.552;2022-07-29T04:35:52;91166.53;;;15.91;100.00
20616;BME280;10467;42.338;23.552;2022-07-29T04:38:18;91150.22;;;15.96;100.00
20616;BME280;10467;42.338;23.552;2022-07-29T04:40:43;91157.13;;;16.21;100.00
20616;BME280;10467;42.338;23.552;2022-07-29T04:43:09;91169.09;;;16.36;100.00
20616;BME280;10467;42.338;23.552;2022-07-29T04:45:34;91169.00;;;16.44;100.00
20616;BME280;10467;42.338;23.552;2022-07-29T04:48:00;91162.78;;;16.56;100.00
20616;BME280;10467;42.338;23.552;2022-07-29T04:50:25;91156.97;;;16.66;100.00
20616;BME280;10467;42.338;23.552;2022-07-29T04:52:51;91155.75;;;16.64;100.00
20616;BME280;10467;42.338;23.552;2022-07-29T04:55:16;91149.47;;;16.72;100.00
20616;BME280;10467;42.338;23.552;2022-07-29T04:57:42;91158.09;;;16.77;100.00
20616;BME280;10467;42.338;23.552;2022-07-29T05:00:08;91172.94;;;16.87;100.00
20616;BME280;10467;42.338;23.552;2022-07-29T05:02:33;91167.19;;;16.73;100.00
20616;BME280;10467;42.338;23.552;2022-07-29T05:04:59;91169.47;;;16.87;100.00
20616;BME280;10467;42.338;23.552;2022-07-29T05:07:24;91176.91;;;16.77;100.00
20616;BME280;10467;42.338;23.552;2022-07-29T05:09:50;91165.88;;;16.95;100.00
20616;BME280;10467;42.338;23.552;2022-07-29T05:12:15;91167.31;;;17.04;100.00
20616;BME280;10467;42.338;23.552;2022-07-29T05:14:41;91168.31;;;17.28;100.00
20616;BME280;10467;42.338;23.552;2022-07-29T05:17:06;91166.13;;;17.61;100.00
20616;BME280;10467;42.338;23.552;2022-07-29T05:19:33;91177.50;;;17.55;100.00
20616;BME280;10467;42.338;23.552;2022-07-29T05:21:58;91174.34;;;17.96;100.00
20616;BME280;10467;42.338;23.552;2022-07-29T05:24:25;91167.81;;;18.29;100.00
20616;BME280;10467;42.338;23.552;2022-07-29T05:26:50;91175.44;;;18.43;100.00
20616;BME280;10467;42.338;23.552;2022-07-29T05:29:16;91176.75;;;19.19;100.00
20616;BME280;10467;42.338;23.552;2022-07-29T05:31:41;91177.78;;;21.47;100.00
20616;BME280;10467;42.338;23.552;2022-07-29T05:34:08;91171.09;;;23.94;98.30
20616;BME280;10467;42.338;23.552;2022-07-29T05:36:33;91179.84;;;26.01;76.31
20616;BME280;10467;42.338;23.552;2022-07-29T05:38:59;91176.34;;;27.19;66.72
20616;BME280;10467;42.338;23.552;2022-07-29T05:41:24;91175.13;;;28.25;61.93
20616;BME280;10467;42.338;23.552;2022-07-29T05:43:50;91169.69;;;29.49;57.36
20616;BME280;10467;42.338;23.552;2022-07-29T05:46:15;91180.13;;;31.06;52.15
20616;BME280;10467;42.338;23.552;2022-07-29T05:48:41;91187.09;;;32.72;46.87
20616;BME280;10467;42.338;23.552;2022-07-29T05:51:06;91174.34;;;33.63;45.10
20616;BME280;10467;42.338;23.552;2022-07-29T05:53:32;91185.88;;;33.49;44.11
20616;BME280;10467;42.338;23.552;2022-07-29T05:55:57;91168.03;;;33.16;44.58
20616;BME280;10467;42.338;23.552;2022-07-29T05:58:23;91182.56;;;33.89;43.00
20616;BME280;10467;42.338;23.552;2022-07-29T06:00:48;91185.31;;;33.89;43.27
20616;BME280;10467;42.338;23.552;2022-07-29T06:03:14;91188.41;;;34.35;43.04
20616;BME280;10467;42.338;23.552;2022-07-29T06:05:39;91194.00;;;34.88;41.76
20616;BME280;10467;42.338;23.552;2022-07-29T06:08:05;91190.91;;;35.93;39.60
20616;BME280;10467;42.338;23.552;2022-07-29T06:10:36;91191.41;;;36.47;38.61
20616;BME280;10467;42.338;23.552;2022-07-29T06:13:01;91189.34;;;37.59;37.31
20616;BME280;10467;42.338;23.552;2022-07-29T06:15:27;91189.97;;;37.54;37.49
20616;BME280;10467;42.338;23.552;2022-07-29T06:17:52;91188.31;;;36.36;38.30
20616;BME280;10467;42.338;23.552;2022-07-29T06:20:18;91185.03;;;35.15;41.09
20616;BME280;10467;42.338;23.552;2022-07-29T06:22:44;91184.41;;;35.60;40.71
20616;BME280;10467;42.338;23.552;2022-07-29T06:25:09;91190.00;;;35.96;39.67
20616;BME280;10467;42.338;23.552;2022-07-29T06:27:35;91190.25;;;35.53;40.66
20616;BME280;10467;42.338;23.552;2022-07-29T06:30:01;91192.50;;;37.67;37.76
20616;BME280;10467;42.338;23.552;2022-07-29T06:32:27;91194.72;;;36.60;36.93
20616;BME280;10467;42.338;23.552;2022-07-29T06:34:52;91192.75;;;38.02;36.08
20616;BME280;10467;42.338;23.552;2022-07-29T06:37:18;91192.44;;;39.07;35.99
20616;BME280;10467;42.338;23.552;2022-07-29T06:39:43;91187.78;;;37.58;36.25
20616;BME280;10467;42.338;23.552;2022-07-29T06:42:09;91197.66;;;35.83;39.88
20616;BME280;10467;42.338;23.552;2022-07-29T06:44:34;91197.25;;;36.49;39.64
20616;BME280;10467;42.338;23.552;2022-07-29T06:47:00;91185.25;;;36.15;39.27
20616;BME280;10467;42.338;23.552;2022-07-29T06:49:26;91188.75;;;32.82;45.16
20616;BME280;10467;42.338;23.552;2022-07-29T06:51:53;91185.91;;;31.90;46.99
20616;BME280;10467;42.338;23.552;2022-07-29T06:54:19;91183.16;;;32.86;44.61
20616;BME280;10467;42.338;23.552;2022-07-29T06:56:44;91182.00;;;34.16;43.76
20616;BME280;10467;42.338;23.552;2022-07-29T06:59:11;91187.25;;;36.15;39.81
20616;BME280;10467;42.338;23.552;2022-07-29T07:01:38;91185.63;;;35.59;40.91
20616;BME280;10467;42.338;23.552;2022-07-29T07:04:04;91186.94;;;33.64;44.04
20616;BME280;10467;42.338;23.552;2022-07-29T07:06:30;91178.91;;;31.56;47.07
20616;BME280;10467;42.338;23.552;2022-07-29T07:08:55;91180.56;;;32.66;46.81
20616;BME280;10467;42.338;23.552;2022-07-29T07:11:21;91184.41;;;32.43;47.20
20616;BME280;10467;42.338;23.552;2022-07-29T07:13:46;91177.63;;;33.37;44.35
20616;BME280;10467;42.338;23.552;2022-07-29T07:16:12;91187.00;;;35.14;41.57
20616;BME280;10467;42.338;23.552;2022-07-29T07:18:37;91178.78;;;36.18;40.71
20616;BME280;10467;42.338;23.552;2022-07-29T07:21:03;91180.28;;;36.28;39.35
20616;BME280;10467;42.338;23.552;2022-07-29T07:23:30;91184.84;;;37.62;37.66
20616;BME280;10467;42.338;23.552;2022-07-29T07:25:55;91188.00;;;38.41;35.83
20616;BME280;10467;42.338;23.552;2022-07-29T07:28:21;91195.84;;;40.83;33.53
20616;BME280;10467;42.338;23.552;2022-07-29T07:30:46;91195.94;;;40.42;31.75
20616;BME280;10467;42.338;23.552;2022-07-29T07:33:12;91183.69;;;40.60;32.83
20616;BME280;10467;42.338;23.552;2022-07-29T07:35:37;91181.72;;;39.14;33.58
20616;BME280;10467;42.338;23.552;2022-07-29T07:38:02;91192.78;;;38.41;33.40
20616;BME280;10467;42.338;23.552;2022-07-29T07:40:28;91186.44;;;35.19;36.19
20616;BME280;10467;42.338;23.552;2022-07-29T07:42:53;91187.56;;;35.00;37.64
20616;BME280;10467;42.338;23.552;2022-07-29T07:45:19;91178.94;;;34.36;37.76
20616;BME280;10467;42.338;23.552;2022-07-29T07:47:44;91184.22;;;38.29;34.57
20616;BME280;10467;42.338;23.552;2022-07-29T07:50:12;91191.94;;;40.49;32.35
20616;BME280;10467;42.338;23.552;2022-07-29T07:52:52;91191.81;;;39.97;32.64
20616;BME280;10467;42.338;23.552;2022-07-29T07:55:18;91183.75;;;39.64;32.40
20616;BME280;10467;42.338;23.552;2022-07-29T07:57:45;91187.25;;;39.29;32.74
20616;BME280;10467;42.338;23.552;2022-07-29T08:00:12;91176.09;;;38.02;33.07
20616;BME280;10467;42.338;23.552;2022-07-29T08:02:38;91184.91;;;38.24;35.19
20616;BME280;10467;42.338;23.552;2022-07-29T08:05:05;91190.97;;;39.76;33.58
20616;BME280;10467;42.338;23.552;2022-07-29T08:07:32;91181.28;;;38.48;33.42
20616;BME280;10467;42.338;23.552;2022-07-29T08:09:57;91184.34;;;38.35;34.10
20616;BME280;10467;42.338;23.552;2022-07-29T08:12:23;91185.13;;;39.74;33.55
20616;BME280;10467;42.338;23.552;2022-07-29T08:14:48;91183.25;;;37.94;34.86
20616;BME280;10467;42.338;23.552;2022-07-29T08:17:13;91179.88;;;37.42;35.02
20616;BME280;10467;42.338;23.552;2022-07-29T08:19:39;91189.84;;;38.59;34.02
20616;BME280;10467;42.338;23.552;2022-07-29T08:22:05;91188.34;;;37.38;35.42
20616;BME280;10467;42.338;23.552;2022-07-29T08:24:30;91178.78;;;39.38;34.61
20616;BME280;10467;42.338;23.552;2022-07-29T08:27:14;91186.81;;;40.42;33.39
20616;BME280;10467;42.338;23.552;2022-07-29T08:29:39;91190.88;;;40.05;33.53
20616;BME280;10467;42.338;23.552;2022-07-29T08:32:06;91183.88;;;39.55;35.44
20616;BME280;10467;42.338;23.552;2022-07-29T08:34:32;91182.72;;;39.81;33.44
20616;BME280;10467;42.338;23.552;2022-07-29T08:36:57;91190.91;;;37.51;35.71
20616;BME280;10467;42.338;23.552;2022-07-29T08:39:24;91191.81;;;36.64;36.92
20616;BME280;10467;42.338;23.552;2022-07-29T08:41:50;91174.00;;;36.46;37.86
20616;BME280;10467;42.338;23.552;2022-07-29T08:44:18;91185.38;;;36.03;38.29
20616;BME280;10467;42.338;23.552;2022-07-29T08:46:43;91183.44;;;37.90;36.53
20616;BME280;10467;42.338;23.552;2022-07-29T08:49:09;91180.22;;;38.45;36.02
20616;BME280;10467;42.338;23.552;2022-07-29T08:51:35;91186.13;;;39.21;34.93
20616;BME280;10467;42.338;23.552;2022-07-29T08:54:02;91185.97;;;38.03;35.92
20616;BME280;10467;42.338;23.552;2022-07-29T08:56:28;91174.88;;;38.42;35.87
20616;BME280;10467;42.338;23.552;2022-07-29T08:58:54;91178.38;;;38.27;33.15
20616;BME280;10467;42.338;23.552;2022-07-29T09:01:23;91187.44;;;39.75;32.01
20616;BME280;10467;42.338;23.552;2022-07-29T09:03:49;91176.13;;;38.41;33.79
20616;BME280;10467;42.338;23.552;2022-07-29T09:06:17;91183.66;;;40.14;32.60
20616;BME280;10467;42.338;23.552;2022-07-29T09:08:45;91185.13;;;39.74;32.04
20616;BME280;10467;42.338;23.552;2022-07-29T09:11:12;91170.16;;;37.37;34.08
20616;BME280;10467;42.338;23.552;2022-07-29T09:13:39;91174.88;;;38.56;33.87
20616;BME280;10467;42.338;23.552;2022-07-29T09:16:05;91170.25;;;34.77;35.92
20616;BME280;10467;42.338;23.552;2022-07-29T09:18:42;91160.22;;;33.96;38.51
20616;BME280;10467;42.338;23.552;2022-07-29T09:21:10;91170.78;;;34.10;38.88
20616;BME280;10467;42.338;23.552;2022-07-29T09:24:04;91165.16;;;33.06;40.79
20616;BME280;10467;42.338;23.552;2022-07-29T09:26:35;91178.66;;;34.96;39.19
20616;BME280;10467;42.338;23.552;2022-07-29T09:29:08;91175.81;;;34.34;39.89
20616;BME280;10467;42.338;23.552;2022-07-29T09:31:40;91181.03;;;32.52;40.50
20616;BME280;10467;42.338;23.552;2022-07-29T09:34:07;91177.25;;;32.04;40.39
20616;BME280;10467;42.338;23.552;2022-07-29T09:36:44;91174.00;;;32.89;39.44
20616;BME280;10467;42.338;23.552;2022-07-29T09:39:10;91174.69;;;36.74;36.21
20616;BME280;10467;42.338;23.552;2022-07-29T09:41:53;91189.78;;;38.29;32.24
20616;BME280;10467;42.338;23.552;2022-07-29T09:44:19;91170.16;;;36.16;34.84
20616;BME280;10467;42.338;23.552;2022-07-29T09:47:00;91181.28;;;35.39;35.93
20616;BME280;10467;42.338;23.552;2022-07-29T09:49:34;91185.31;;;35.57;33.74
20616;BME280;10467;42.338;23.552;2022-07-29T09:52:03;91182.47;;;34.67;35.20
20616;BME280;10467;42.338;23.552;2022-07-29T09:54:29;91178.19;;;33.19;36.84
20616;BME280;10467;42.338;23.552;2022-07-29T09:56:59;91168.81;;;31.66;39.91
20616;BME280;10467;42.338;23.552;2022-07-29T09:59:25;91171.50;;;30.19;39.99
20616;BME280;10467;42.338;23.552;2022-07-29T10:01:52;91175.09;;;31.21;38.49
20616;BME280;10467;42.338;23.552;2022-07-29T10:04:18;91183.06;;;31.15;38.32
20616;BME280;10467;42.338;23.552;2022-07-29T10:07:00;91171.19;;;33.27;36.41
20616;BME280;10467;42.338;23.552;2022-07-29T10:09:26;91175.91;;;34.96;34.23
20616;BME280;10467;42.338;23.552;2022-07-29T10:12:12;91169.03;;;35.59;33.46
20616;BME280;10467;42.338;23.552;2022-07-29T10:14:41;91172.34;;;37.24;32.11
20616;BME280;10467;42.338;23.552;2022-07-29T10:17:08;91167.31;;;38.18;30.85
20616;BME280;10467;42.338;23.552;2022-07-29T10:19:35;91162.00;;;38.29;30.55
20616;BME280;10467;42.338;23.552;2022-07-29T10:22:05;91153.69;;;36.92;31.39
20616;BME280;10467;42.338;23.552;2022-07-29T10:24:32;91164.75;;;36.31;33.50
20616;BME280;10467;42.338;23.552;2022-07-29T10:27:00;91156.97;;;37.56;33.25
20616;BME280;10467;42.338;23.552;2022-07-29T10:29:27;91165.78;;;39.30;30.13
20616;BME280;10467;42.338;23.552;2022-07-29T10:32:28;91157.50;;;39.35;29.63
20616;BME280;10467;42.338;23.552;2022-07-29T10:35:26;91159.53;;;36.15;32.67
20616;BME280;10467;42.338;23.552;2022-07-29T10:43:31;91148.19;;;32.70;37.16
20616;BME280;10467;42.338;23.552;2022-07-29T10:46:01;91141.88;;;32.31;37.13
20616;BME280;10467;42.338;23.552;2022-07-29T10:48:28;91144.00;;;32.40;37.72
20616;BME280;10467;42.338;23.552;2022-07-29T10:51:04;91146.25;;;31.87;38.41
20616;BME280;10467;42.338;23.552;2022-07-29T10:53:52;91138.19;;;32.09;37.80
20616;BME280;10467;42.338;23.552;2022-07-29T10:56:29;91129.84;;;31.25;39.11
20616;BME280;10467;42.338;23.552;2022-07-29T11:01:49;91126.47;;;30.17;41.48
20616;BME280;10467;42.338;23.552;2022-07-29T11:09:32;91132.94;;;28.23;44.42
20616;BME280;10467;42.338;23.552;2022-07-29T11:11:57;91124.56;;;28.87;43.42
20616;BME280;10467;42.338;23.552;2022-07-29T11:17:17;91123.50;;;31.99;38.52
20616;BME280;10467;42.338;23.552;2022-07-29T11:19:43;91136.44;;;30.63;40.68
20616;BME280;10467;42.338;23.552;2022-07-29T11:22:10;91127.84;;;32.13;37.62
20616;BME280;10467;42.338;23.552;2022-07-29T11:24:37;91122.47;;;33.37;36.67
20616;BME280;10467;42.338;23.552;2022-07-29T11:27:18;91130.50;;;35.33;33.71
20616;BME280;10467;42.338;23.552;2022-07-29T11:29:51;91112.06;;;35.30;33.56
20616;BME280;10467;42.338;23.552;2022-07-29T11:32:17;91119.06;;;34.95;34.56
20616;BME280;10467;42.338;23.552;2022-07-29T11:34:45;91122.53;;;34.46;34.74
20616;BME280;10467;42.338;23.552;2022-07-29T11:45:00;91120.38;;;30.78;39.88
20616;BME280;10467;42.338;23.552;2022-07-29T11:47:30;91095.00;;;29.22;42.61
20616;BME280;10467;42.338;23.552;2022-07-29T11:49:57;91110.25;;;30.22;41.96
20616;BME280;10467;42.338;23.552;2022-07-29T11:52:23;91098.28;;;33.28;39.12
20616;BME280;10467;42.338;23.552;2022-07-29T11:54:57;91100.69;;;35.28;34.67
20616;BME280;10467;42.338;23.552;2022-07-29T11:57:23;91094.59;;;35.70;35.13
20616;BME280;10467;42.338;23.552;2022-07-29T11:59:50;91093.06;;;35.78;35.10
20616;BME280;10467;42.338;23.552;2022-07-29T12:02:16;91092.03;;;34.99;34.75
20616;BME280;10467;42.338;23.552;2022-07-29T12:04:52;91096.41;;;34.78;35.44
20616;BME280;10467;42.338;23.552;2022-07-29T12:07:19;91092.22;;;34.11;35.59
20616;BME280;10467;42.338;23.552;2022-07-29T12:09:52;91097.09;;;35.86;34.09
20616;BME280;10467;42.338;23.552;2022-07-29T12:12:18;91097.34;;;35.79;33.24
20616;BME280;10467;42.338;23.552;2022-07-29T12:14:44;91097.41;;;37.57;31.06
20616;BME280;10467;42.338;23.552;2022-07-29T12:17:31;91101.81;;;36.74;31.68
20616;BME280;10467;42.338;23.552;2022-07-29T12:19:59;91101.38;;;35.60;33.49
20616;BME280;10467;42.338;23.552;2022-07-29T12:24:52;91092.97;;;31.52;38.77
20616;BME280;10467;42.338;23.552;2022-07-29T12:27:17;91098.25;;;33.06;39.27
20616;BME280;10467;42.338;23.552;2022-07-29T12:29:43;91091.53;;;35.77;35.84
20616;BME280;10467;42.338;23.552;2022-07-29T12:32:08;91090.50;;;34.98;34.81
20616;BME280;10467;42.338;23.552;2022-07-29T12:34:34;91095.03;;;34.20;35.33
20616;BME280;10467;42.338;23.552;2022-07-29T12:37:00;91088.75;;;34.42;35.80
20616;BME280;10467;42.338;23.552;2022-07-29T12:39:26;91092.25;;;34.73;34.63
20616;BME280;10467;42.338;23.552;2022-07-29T12:41:53;91090.41;;;35.29;33.68
20616;BME280;10467;42.338;23.552;2022-07-29T12:44:19;91078.59;;;35.65;33.29
20616;BME280;10467;42.338;23.552;2022-07-29T12:46:45;91070.38;;;36.86;33.41
20616;BME280;10467;42.338;23.552;2022-07-29T12:49:21;91075.19;;;38.20;32.29
20616;BME280;10467;42.338;23.552;2022-07-29T12:51:46;91075.75;;;38.68;30.46
20616;BME280;10467;42.338;23.552;2022-07-29T12:54:15;91068.91;;;36.67;32.55
20616;BME280;10467;42.338;23.552;2022-07-29T12:56:42;91056.94;;;36.00;32.86
20616;BME280;10467;42.338;23.552;2022-07-29T12:59:12;91059.53;;;35.58;33.25
20616;BME280;10467;42.338;23.552;2022-07-29T13:01:38;91067.97;;;36.18;32.58
20616;BME280;10467;42.338;23.552;2022-07-29T13:04:04;91064.91;;;36.68;34.41
20616;BME280;10467;42.338;23.552;2022-07-29T13:06:35;91065.53;;;35.56;33.73
20616;BME280;10467;42.338;23.552;2022-07-29T13:11:41;91059.78;;;35.14;33.20
20616;BME280;10467;42.338;23.552;2022-07-29T13:14:10;91065.91;;;33.98;34.77
20616;BME280;10467;42.338;23.552;2022-07-29T13:16:40;91069.06;;;34.40;34.41
20616;BME280;10467;42.338;23.552;2022-07-29T13:19:42;91063.59;;;33.74;34.45
20616;BME280;10467;42.338;23.552;2022-07-29T13:22:18;91059.38;;;34.75;34.26
20616;BME280;10467;42.338;23.552;2022-07-29T13:24:58;91056.69;;;35.03;34.68
20616;BME280;10467;42.338;23.552;2022-07-29T13:27:28;91057.13;;;34.43;33.59
20616;BME280;10467;42.338;23.552;2022-07-29T13:29:55;91049.63;;;34.52;33.66
20616;BME280;10467;42.338;23.552;2022-07-29T13:32:23;91041.38;;;35.20;33.77
20616;BME280;10467;42.338;23.552;2022-07-29T13:34:49;91037.66;;;36.06;33.63